Time;durP1;ratioP1;P1;durP2;ratioP2;P2;SDS_P1;SDS_P2;PMS_P1;PMS_P2;Temp;Humidity;BMP_temperature;BMP_pressure;BME280_temperature;BME280_humidity;BME280_pressure;Samples;Min_cycle;Max_cycle;Signal;HPM_P1;HPM_P2
2021/06/13 00:02:17;;;;;;;7.03;6.50;;;23.80;99.90;;;;;;5114459;28;20415;-69
2021/06/13 00:04:43;;;;;;;6.87;6.27;;;23.80;99.90;;;;;;5113935;28;20823;-68
2021/06/13 00:07:08;;;;;;;8.40;6.00;;;23.70;99.90;;;;;;5112684;28;20284;-69
2021/06/13 00:09:34;;;;;;;7.10;6.50;;;23.80;99.90;;;;;;5113980;28;20184;-69
2021/06/13 00:12:00;;;;;;;8.43;6.73;;;23.70;99.90;;;;;;5114079;28;20279;-68
2021/06/13 00:14:25;;;;;;;9.70;6.83;;;23.80;99.90;;;;;;5113907;28;20189;-70
2021/06/13 00:16:52;;;;;;;7.30;6.60;;;23.70;99.90;;;;;;5113947;28;20221;-69
2021/06/13 00:19:18;;;;;;;7.70;6.97;;;23.90;99.90;;;;;;5113894;28;20553;-69
2021/06/13 00:21:44;;;;;;;7.97;7.27;;;23.80;99.90;;;;;;5112739;28;20571;-69
2021/06/13 00:24:11;;;;;;;7.90;7.23;;;23.70;99.90;;;;;;5113739;28;20755;-69
2021/06/13 00:26:36;;;;;;;9.07;8.13;;;23.70;99.90;;;;;;5113904;28;20500;-68
2021/06/13 00:29:03;;;;;;;10.10;7.53;;;23.20;99.90;;;;;;5112443;28;20404;-68
2021/06/13 00:31:28;;;;;;;8.93;7.83;;;23.20;99.90;;;;;;5113776;28;20199;-69
2021/06/13 00:33:54;;;;;;;8.70;7.90;;;23.00;99.90;;;;;;5113713;28;20897;-69
2021/06/13 00:36:20;;;;;;;9.20;7.30;;;22.80;99.90;;;;;;5113576;28;20231;-68
2021/06/13 00:38:46;;;;;;;8.43;7.63;;;23.00;99.90;;;;;;5113734;28;20182;-69
2021/06/13 00:41:16;;;;;;;9.37;8.37;;;22.90;99.90;;;;;;5115829;28;20198;-69
2021/06/13 00:43:42;;;;;;;8.93;8.13;;;22.70;99.90;;;;;;5117089;28;20943;-69
2021/06/13 00:46:08;;;;;;;10.40;8.87;;;22.50;99.90;;;;;;5117303;28;22431;-69
2021/06/13 00:48:33;;;;;;;8.63;7.83;;;22.40;99.90;;;;;;5117433;28;20444;-69
2021/06/13 00:50:59;;;;;;;11.40;9.07;;;22.30;99.90;;;;;;5117259;28;20188;-68
2021/06/13 00:53:28;;;;;;;10.40;9.50;;;22.10;99.90;;;;;;5117326;28;20658;-70
2021/06/13 00:55:54;;;;;;;9.53;8.67;;;22.00;99.90;;;;;;5117122;28;20215;-68
2021/06/13 00:58:20;;;;;;;10.93;9.80;;;22.10;99.90;;;;;;5117265;28;20461;-68
2021/06/13 01:00:45;;;;;;;10.57;8.80;;;22.00;99.90;;;;;;5117012;28;20416;-69
2021/06/13 01:03:11;;;;;;;11.10;10.10;;;22.00;99.90;;;;;;5117086;28;20702;-70
2021/06/13 01:05:37;;;;;;;10.90;10.00;;;22.00;99.90;;;;;;5116941;28;20635;-68
2021/06/13 01:08:26;;;;;;;10.07;9.17;;;21.60;99.90;;;;;;5117494;28;20176;-68
2021/06/13 01:11:21;;;;;;;9.77;8.87;;;21.60;99.90;;;;;;5116708;27;20432;-70
2021/06/13 01:14:15;;;;;;;10.20;9.20;;;21.50;99.90;;;;;;5107820;28;20420;-67
2021/06/13 01:17:01;;;;;;;9.90;9.00;;;21.40;99.90;;;;;;5116998;28;20854;-68
2021/06/13 01:19:35;;;;;;;10.03;9.03;;;21.30;99.90;;;;;;5116957;28;20392;-69
2021/06/13 01:22:43;;;;;;;10.47;9.47;;;21.40;99.90;;;;;;5115448;28;20502;-69
2021/06/13 01:25:11;;;;;;;10.57;9.60;;;21.30;99.90;;;;;;5116534;28;20468;-67
2021/06/13 01:28:15;;;;;;;11.67;10.47;;;21.30;99.90;;;;;;5117059;28;20901;-68
2021/06/13 01:30:41;;;;;;;11.20;10.20;;;21.20;99.90;;;;;;5116610;28;20438;-69
2021/06/13 01:33:13;;;;;;;11.27;10.17;;;21.10;99.90;;;;;;5116991;28;20420;-69
2021/06/13 01:35:42;;;;;;;10.20;9.30;;;21.00;99.90;;;;;;5116501;28;20432;-69
2021/06/13 01:38:10;;;;;;;12.33;10.50;;;20.90;99.90;;;;;;5115367;28;20420;-68
2021/06/13 01:40:37;;;;;;;10.73;9.70;;;20.90;99.90;;;;;;5115020;28;20439;-67
2021/06/13 01:43:05;;;;;;;10.80;9.87;;;20.80;99.90;;;;;;5114968;28;20424;-68
2021/06/13 01:45:38;;;;;;;11.50;10.50;;;20.60;99.90;;;;;;5116140;28;20828;-69
2021/06/13 01:48:05;;;;;;;10.83;9.83;;;20.70;99.90;;;;;;5116762;28;20412;-67
2021/06/13 01:50:31;;;;;;;10.50;9.43;;;20.70;99.90;;;;;;5116090;28;20539;-68
2021/06/13 01:53:00;;;;;;;11.30;10.20;;;20.70;99.90;;;;;;5113979;28;20519;-69
2021/06/13 01:55:26;;;;;;;10.87;9.90;;;20.70;99.90;;;;;;5114798;28;20199;-69
2021/06/13 01:57:54;;;;;;;12.27;10.27;;;20.70;99.90;;;;;;5116550;28;20416;-69
2021/06/13 02:00:21;;;;;;;10.80;9.87;;;20.60;99.90;;;;;;5115993;28;20438;-70
2021/06/13 02:02:50;;;;;;;12.80;11.20;;;20.40;99.90;;;;;;5116401;28;20430;-68
2021/06/13 02:05:19;;;;;;;10.90;9.90;;;20.40;99.90;;;;;;5115772;28;20468;-68
2021/06/13 02:07:45;;;;;;;11.57;10.47;;;20.50;99.90;;;;;;5116279;28;20749;-69
2021/06/13 02:10:14;;;;;;;11.33;10.23;;;20.40;99.90;;;;;;5115752;28;20452;-69
2021/06/13 02:12:43;;;;;;;11.97;10.87;;;20.40;99.90;;;;;;5114720;28;20423;-68
2021/06/13 02:15:11;;;;;;;12.07;10.90;;;20.50;99.90;;;;;;5115961;28;21004;-68
2021/06/13 02:17:41;;;;;;;11.47;10.27;;;20.40;99.90;;;;;;5115554;28;20419;-68
2021/06/13 02:20:09;;;;;;;11.73;10.53;;;20.40;99.90;;;;;;5115516;28;20983;-69
2021/06/13 02:22:36;;;;;;;12.10;10.90;;;20.30;99.90;;;;;;5115913;28;20425;-69
2021/06/13 02:25:02;;;;;;;13.27;12.00;;;20.30;99.90;;;;;;5115363;28;20559;-70
2021/06/13 02:27:29;;;;;;;12.27;11.13;;;20.20;99.90;;;;;;5114308;28;20427;-68
2021/06/13 02:29:55;;;;;;;12.13;10.90;;;20.30;99.90;;;;;;5114068;28;20412;-68
2021/06/13 02:32:21;;;;;;;12.80;11.60;;;20.50;99.90;;;;;;5115760;28;20485;-68
2021/06/13 02:34:48;;;;;;;13.30;11.90;;;20.50;99.90;;;;;;5115345;28;20175;-68
2021/06/13 02:37:15;;;;;;;12.27;11.00;;;20.50;99.90;;;;;;5115632;28;20452;-68
2021/06/13 02:39:41;;;;;;;12.73;11.60;;;20.40;99.90;;;;;;5115245;28;20417;-69
2021/06/13 02:42:07;;;;;;;12.77;11.47;;;20.30;99.90;;;;;;5114939;28;20447;-69
2021/06/13 02:44:33;;;;;;;12.70;11.50;;;20.40;99.90;;;;;;5115133;28;20264;-70
2021/06/13 02:47:00;;;;;;;12.57;11.37;;;20.30;99.90;;;;;;5115132;28;20447;-67
2021/06/13 02:49:25;;;;;;;12.43;11.03;;;20.30;99.90;;;;;;5115037;28;20418;-68
2021/06/13 02:51:57;;;;;;;12.97;11.67;;;20.30;99.90;;;;;;5115033;28;20938;-68
2021/06/13 02:54:25;;;;;;;11.73;10.73;;;20.40;99.90;;;;;;5114798;28;20179;-68
2021/06/13 02:57:01;;;;;;;12.37;11.20;;;20.30;99.90;;;;;;5114895;28;20454;-68
2021/06/13 02:59:48;;;;;;;17.13;10.97;;;20.20;99.90;;;;;;5114879;28;20444;-69
2021/06/13 03:02:20;;;;;;;14.10;11.30;;;20.10;99.90;;;;;;5113757;28;20951;-67
2021/06/13 03:04:47;;;;;;;11.30;10.30;;;20.20;99.90;;;;;;5114673;28;20471;-67
2021/06/13 03:07:17;;;;;;;11.13;10.03;;;20.10;99.90;;;;;;5114989;28;20412;-68
2021/06/13 03:09:44;;;;;;;13.20;11.80;;;20.20;99.90;;;;;;5115361;28;20742;-70
2021/06/13 03:12:11;;;;;;;12.00;10.80;;;20.20;99.90;;;;;;5114573;28;20443;-68
2021/06/13 03:14:41;;;;;;;12.20;10.87;;;20.20;99.90;;;;;;5114538;28;20423;-69
2021/06/13 03:17:07;;;;;;;11.37;10.37;;;20.10;99.90;;;;;;5113107;28;20459;-68
2021/06/13 03:19:34;;;;;;;14.90;11.00;;;20.20;99.90;;;;;;5113144;28;20940;-68
2021/06/13 03:22:03;;;;;;;10.57;9.57;;;20.20;99.90;;;;;;5114648;28;20470;-68
2021/06/13 03:24:30;;;;;;;11.73;10.63;;;20.20;99.90;;;;;;5114456;28;20884;-69
2021/06/13 03:26:56;;;;;;;10.03;9.13;;;20.30;99.90;;;;;;5114513;28;20488;-68
2021/06/13 03:29:24;;;;;;;10.83;9.80;;;20.30;99.90;;;;;;5114372;28;20407;-68
2021/06/13 03:31:51;;;;;;;8.93;8.13;;;20.40;99.90;;;;;;5113999;28;20440;-69
2021/06/13 03:34:17;;;;;;;10.60;9.40;;;20.30;99.90;;;;;;5114317;28;20981;-70
2021/06/13 03:36:42;;;;;;;10.63;9.53;;;20.30;99.90;;;;;;5114352;28;20477;-68
2021/06/13 03:39:09;;;;;;;9.13;8.33;;;20.30;99.90;;;;;;5114287;28;20415;-68
2021/06/13 03:41:35;;;;;;;8.90;8.00;;;20.20;99.90;;;;;;5114318;28;20554;-70
2021/06/13 03:44:02;;;;;;;8.23;7.60;;;20.20;99.90;;;;;;5114181;28;20883;-68
2021/06/13 03:46:28;;;;;;;8.20;7.50;;;20.20;99.90;;;;;;5114258;28;20942;-69
2021/06/13 03:48:55;;;;;;;7.30;6.70;;;20.40;99.90;;;;;;5112878;28;20419;-69
2021/06/13 03:51:22;;;;;;;8.03;7.33;;;20.40;99.90;;;;;;5114217;28;20471;-68
2021/06/13 03:53:48;;;;;;;6.47;5.87;;;20.30;99.90;;;;;;5114162;28;20894;-69
2021/06/13 03:56:17;;;;;;;8.00;6.83;;;20.40;99.90;;;;;;5114010;28;20427;-68
2021/06/13 03:58:44;;;;;;;5.87;5.20;;;20.40;99.90;;;;;;5112854;28;20778;-67
2021/06/13 04:01:18;;;;;;;6.63;5.10;;;20.30;99.90;;;;;;5113994;28;20430;-69
2021/06/13 04:03:49;;;;;;;6.60;5.90;;;20.30;99.90;;;;;;5114153;28;20407;-70
2021/06/13 04:06:15;;;;;;;6.20;5.70;;;20.40;99.90;;;;;;5114051;28;20459;-68
2021/06/13 04:08:42;;;;;;;6.10;5.53;;;20.40;99.90;;;;;;5112761;28;20766;-68
2021/06/13 04:11:11;;;;;;;4.93;4.60;;;20.40;99.90;;;;;;5112592;28;20535;-67
2021/06/13 04:13:37;;;;;;;5.77;5.23;;;20.30;99.90;;;;;;5114051;28;20503;-68
2021/06/13 04:16:07;;;;;;;5.90;5.40;;;20.40;99.90;;;;;;5115899;28;20427;-68
2021/06/13 04:18:34;;;;;;;4.93;4.53;;;20.40;99.90;;;;;;5118022;28;20464;-70
2021/06/13 04:21:00;;;;;;;4.87;4.37;;;20.40;99.90;;;;;;5116281;28;20499;-69
2021/06/13 04:23:26;;;;;;;5.60;5.17;;;20.40;99.90;;;;;;5116727;28;20404;-70
2021/06/13 04:25:55;;;;;;;9.00;5.37;;;20.20;99.90;;;;;;5117640;28;20462;-70
2021/06/13 04:28:20;;;;;;;4.67;4.33;;;20.10;99.90;;;;;;5116585;28;20426;-67
2021/06/13 04:31:01;;;;;;;5.13;4.70;;;20.10;99.90;;;;;;5117626;28;20444;-69
2021/06/13 04:33:28;;;;;;;7.53;4.70;;;20.30;99.90;;;;;;5116533;28;20220;-69
2021/06/13 04:35:54;;;;;;;4.50;4.17;;;20.30;99.90;;;;;;5116216;28;20948;-70
2021/06/13 04:38:19;;;;;;;6.10;3.97;;;20.30;99.90;;;;;;5116319;28;20426;-69
2021/06/13 04:40:45;;;;;;;6.33;3.97;;;20.40;99.90;;;;;;5117419;28;20279;-68
2021/06/13 04:43:10;;;;;;;4.83;4.40;;;20.30;99.90;;;;;;5116444;28;20256;-70
2021/06/13 04:45:36;;;;;;;6.43;4.20;;;20.40;99.90;;;;;;5116068;28;20290;-67
2021/06/13 04:48:06;;;;;;;4.70;4.30;;;20.40;99.90;;;;;;5117364;28;20171;-70
2021/06/13 04:50:38;;;;;;;6.00;4.53;;;20.40;99.90;;;;;;5116000;28;20289;-69
2021/06/13 04:53:47;;;;;;;4.87;4.50;;;20.40;99.90;;;;;;5117959;28;20460;-70
2021/06/13 04:56:19;;;;;;;4.40;3.87;;;20.20;99.90;;;;;;5117203;28;20451;-68
2021/06/13 04:58:45;;;;;;;4.63;4.10;;;20.10;99.90;;;;;;5116076;28;20447;-66
2021/06/13 05:01:10;;;;;;;8.47;4.10;;;19.90;99.90;;;;;;5117169;28;20447;-66
2021/06/13 05:03:36;;;;;;;5.30;4.00;;;20.10;99.90;;;;;;5115833;28;20218;-66
2021/06/13 05:06:02;;;;;;;5.13;3.40;;;20.10;99.90;;;;;;5116862;28;20745;-67
2021/06/13 05:08:28;;;;;;;5.90;3.53;;;20.10;99.90;;;;;;5117111;28;20191;-66
2021/06/13 05:10:54;;;;;;;7.10;3.87;;;20.00;99.90;;;;;;5116818;28;20415;-67
2021/06/13 05:13:20;;;;;;;3.60;3.30;;;20.00;99.90;;;;;;5116937;28;20404;-66
2021/06/13 05:15:46;;;;;;;4.90;3.90;;;20.20;99.90;;;;;;5116796;28;20931;-65
2021/06/13 05:18:11;;;;;;;4.50;3.60;;;20.20;99.90;;;;;;5117338;28;20215;-67
2021/06/13 05:20:38;;;;;;;6.60;3.40;;;20.30;99.90;;;;;;5115156;28;20624;-66
2021/06/13 05:23:05;;;;;;;4.20;3.77;;;20.30;99.90;;;;;;5115661;28;20184;-66
2021/06/13 05:25:33;;;;;;;4.73;3.30;;;20.40;99.90;;;;;;5116599;28;20890;-65
2021/06/13 05:28:00;;;;;;;5.20;4.13;;;20.40;99.90;;;;;;5115974;28;20510;-68
2021/06/13 05:30:29;;;;;;;4.40;4.00;;;20.40;99.90;;;;;;5116518;28;20443;-70
2021/06/13 05:32:55;;;;;;;3.90;3.60;;;20.50;99.90;;;;;;5117007;28;20464;-69
2021/06/13 05:35:22;;;;;;;5.30;3.87;;;20.30;99.90;;;;;;5115169;28;20463;-68
2021/06/13 05:37:48;;;;;;;4.40;3.50;;;20.30;99.90;;;;;;5115341;28;20509;-69
2021/06/13 05:40:15;;;;;;;4.30;3.53;;;20.20;99.90;;;;;;5116280;28;20530;-68
2021/06/13 05:42:40;;;;;;;6.07;3.23;;;20.40;99.90;;;;;;5116868;28;20418;-68
2021/06/13 05:45:08;;;;;;;4.50;3.80;;;20.50;99.90;;;;;;5116158;28;20945;-68
2021/06/13 05:47:34;;;;;;;3.60;3.30;;;20.60;99.90;;;;;;5116514;28;20183;-70
2021/06/13 05:50:00;;;;;;;4.20;3.90;;;20.60;99.90;;;;;;5116139;28;20464;-69
2021/06/13 05:52:26;;;;;;;3.80;3.50;;;20.70;99.90;;;;;;5116135;28;20411;-68
2021/06/13 05:54:57;;;;;;;4.00;3.43;;;20.50;99.90;;;;;;5116052;28;20464;-69
2021/06/13 05:57:23;;;;;;;3.80;3.40;;;20.80;99.90;;;;;;5116517;28;20416;-67
2021/06/13 05:59:48;;;;;;;4.30;3.77;;;20.70;99.90;;;;;;5114635;28;20412;-67
2021/06/13 06:02:14;;;;;;;4.00;3.70;;;20.60;99.90;;;;;;5116308;28;20898;-68
2021/06/13 06:04:40;;;;;;;4.67;3.33;;;20.50;99.90;;;;;;5114685;28;20620;-67
2021/06/13 06:07:05;;;;;;;4.60;3.30;;;20.80;99.90;;;;;;5114540;28;20195;-68
2021/06/13 06:09:31;;;;;;;5.70;3.47;;;21.00;99.90;;;;;;5115892;28;20675;-69
2021/06/13 06:11:56;;;;;;;4.30;3.90;;;21.00;99.90;;;;;;5115906;28;20195;-67
2021/06/13 06:14:22;;;;;;;6.23;3.70;;;21.00;99.90;;;;;;5115849;28;20546;-70
2021/06/13 06:16:47;;;;;;;5.73;3.67;;;20.90;99.90;;;;;;5114425;28;20617;-68
2021/06/13 06:19:13;;;;;;;3.97;3.50;;;20.90;99.90;;;;;;5115638;28;20175;-69
2021/06/13 06:21:38;;;;;;;6.17;2.97;;;21.10;99.90;;;;;;5114282;28;20235;-69
2021/06/13 06:24:04;;;;;;;4.13;3.20;;;21.40;99.90;;;;;;5115598;28;20232;-69
2021/06/13 06:26:30;;;;;;;3.63;2.87;;;21.20;99.90;;;;;;5115480;28;20210;-70
2021/06/13 06:28:55;;;;;;;3.40;3.10;;;21.30;99.90;;;;;;5115434;28;20818;-67
2021/06/13 06:31:21;;;;;;;4.00;3.37;;;21.20;99.90;;;;;;5115492;28;20720;-67
2021/06/13 06:33:47;;;;;;;10.33;3.50;;;21.20;99.90;;;;;;5115339;28;20179;-68
2021/06/13 06:36:12;;;;;;;3.13;2.93;;;21.50;99.90;;;;;;5115310;28;20521;-69
2021/06/13 06:38:38;;;;;;;4.00;2.77;;;21.40;99.90;;;;;;5115068;28;20176;-68
2021/06/13 06:41:03;;;;;;;4.20;3.63;;;21.20;99.90;;;;;;5115094;28;20215;-68
2021/06/13 06:43:29;;;;;;;3.33;3.03;;;21.20;99.90;;;;;;5115181;28;20247;-70
2021/06/13 06:45:55;;;;;;;9.27;3.17;;;21.30;99.90;;;;;;5114813;28;20218;-70
2021/06/13 06:48:20;;;;;;;2.67;2.47;;;21.50;99.90;;;;;;5115079;28;20179;-68
2021/06/13 06:50:46;;;;;;;6.53;3.90;;;21.70;99.90;;;;;;5114967;28;20195;-67
2021/06/13 06:53:11;;;;;;;7.97;3.10;;;21.60;99.90;;;;;;5115566;28;20179;-69
2021/06/13 06:55:37;;;;;;;4.90;3.00;;;21.40;99.90;;;;;;5114917;28;20200;-68
2021/06/13 06:58:03;;;;;;;2.80;2.60;;;21.30;99.90;;;;;;5115411;28;20175;-69
2021/06/13 07:00:29;;;;;;;4.70;3.37;;;21.60;99.90;;;;;;5115024;28;20568;-68
2021/06/13 07:02:55;;;;;;;4.13;3.33;;;21.50;99.90;;;;;;5114733;28;20419;-70
2021/06/13 07:05:21;;;;;;;3.80;3.00;;;21.60;99.90;;;;;;5114713;28;20216;-70
2021/06/13 07:07:46;;;;;;;7.13;3.33;;;21.50;99.90;;;;;;5115139;28;20197;-68
2021/06/13 07:10:13;;;;;;;4.37;2.80;;;21.50;99.90;;;;;;5114696;28;20519;-67
2021/06/13 07:12:40;;;;;;;3.97;2.80;;;21.70;99.90;;;;;;5115128;28;20183;-67
2021/06/13 07:15:08;;;;;;;3.03;2.83;;;21.80;99.90;;;;;;5114497;28;20401;-68
2021/06/13 07:17:38;;;;;;;4.97;3.13;;;21.90;99.90;;;;;;5114988;28;20411;-70
2021/06/13 07:20:04;;;;;;;9.00;2.77;;;22.40;99.90;;;;;;5114214;28;20404;-67
2021/06/13 07:22:30;;;;;;;5.73;3.43;;;22.40;99.90;;;;;;5113386;28;20568;-68
2021/06/13 07:24:57;;;;;;;3.93;3.03;;;22.40;99.90;;;;;;5114352;28;20936;-68
2021/06/13 07:27:23;;;;;;;3.83;3.13;;;22.30;99.90;;;;;;5113074;28;20556;-68
2021/06/13 07:29:49;;;;;;;3.40;3.10;;;22.30;99.90;;;;;;5114248;28;20431;-67
2021/06/13 07:32:16;;;;;;;3.30;3.00;;;22.40;99.90;;;;;;5114691;28;20446;-70
2021/06/13 07:34:42;;;;;;;15.57;3.37;;;22.40;99.90;;;;;;5113066;28;20293;-68
2021/06/13 07:37:08;;;;;;;3.40;3.10;;;22.40;99.90;;;;;;5114449;28;20472;-67
2021/06/13 07:39:34;;;;;;;3.37;3.07;;;22.40;99.90;;;;;;5113083;28;20584;-68
2021/06/13 07:42:00;;;;;;;4.50;3.93;;;22.40;99.90;;;;;;5114400;28;20427;-68
2021/06/13 07:44:26;;;;;;;4.50;3.00;;;22.70;99.90;;;;;;5114083;28;20179;-68
2021/06/13 07:46:52;;;;;;;4.00;3.70;;;22.40;99.90;;;;;;5112870;28;20615;-70
2021/06/13 07:49:18;;;;;;;10.03;3.60;;;22.20;99.90;;;;;;5113877;28;20932;-70
2021/06/13 07:51:43;;;;;;;4.60;3.03;;;22.40;99.90;;;;;;5112298;28;20476;-67
2021/06/13 07:54:09;;;;;;;7.40;3.00;;;22.50;99.90;;;;;;5114121;28;20279;-69
2021/06/13 07:56:34;;;;;;;12.27;4.00;;;22.50;99.90;;;;;;5112781;28;20227;-67
2021/06/13 07:59:00;;;;;;;3.80;2.90;;;22.50;99.90;;;;;;5113997;28;20177;-70
2021/06/13 08:01:25;;;;;;;5.93;2.87;;;22.30;99.90;;;;;;5114058;28;20629;-68
2021/06/13 08:03:51;;;;;;;6.70;2.63;;;22.40;99.90;;;;;;5113995;28;20547;-69
2021/06/13 08:06:17;;;;;;;6.10;2.73;;;22.30;99.90;;;;;;5112464;28;20215;-69
2021/06/13 08:08:43;;;;;;;13.70;3.70;;;22.30;99.90;;;;;;5114044;28;20168;-68
2021/06/13 08:11:09;;;;;;;9.70;3.00;;;22.40;99.90;;;;;;5113884;28;20456;-68
2021/06/13 08:13:35;;;;;;;8.70;2.60;;;22.50;99.90;;;;;;5112568;28;20180;-70
2021/06/13 08:16:00;;;;;;;4.17;2.90;;;22.70;99.90;;;;;;5113852;28;20245;-68
2021/06/13 08:18:26;;;;;;;5.30;2.40;;;22.60;99.90;;;;;;5113918;28;20182;-69
2021/06/13 08:20:52;;;;;;;3.90;2.47;;;22.70;99.90;;;;;;5112365;28;20246;-69
2021/06/13 08:23:18;;;;;;;4.30;2.90;;;22.70;99.90;;;;;;5113857;28;20426;-69
2021/06/13 08:25:44;;;;;;;5.80;2.80;;;22.80;99.90;;;;;;5113623;28;20468;-68
2021/06/13 08:28:09;;;;;;;6.50;3.00;;;23.00;99.90;;;;;;5112795;28;20544;-70
2021/06/13 08:30:35;;;;;;;4.53;2.20;;;23.10;99.90;;;;;;5113794;28;20200;-68
2021/06/13 08:33:01;;;;;;;2.73;2.53;;;23.40;99.90;;;;;;5114361;28;20219;-67
2021/06/13 08:35:28;;;;;;;7.87;2.87;;;23.30;99.90;;;;;;5113739;28;20283;-68
2021/06/13 08:37:54;;;;;;;4.80;2.07;;;23.30;99.90;;;;;;5112403;28;20424;-70
2021/06/13 08:40:21;;;;;;;8.43;3.10;;;23.50;99.00;;;;;;5113743;28;20540;-69
2021/06/13 08:42:47;;;;;;;4.93;2.27;;;23.20;97.10;;;;;;5114058;28;20422;-68
2021/06/13 08:45:14;;;;;;;4.37;3.03;;;23.10;97.00;;;;;;5113513;28;20469;-69
2021/06/13 08:47:41;;;;;;;2.50;1.80;;;23.20;96.20;;;;;;5114157;28;20427;-69
2021/06/13 08:50:08;;;;;;;12.90;3.50;;;23.20;94.20;;;;;;5112231;28;20437;-69
2021/06/13 08:52:34;;;;;;;7.70;1.90;;;23.50;94.80;;;;;;5114059;28;20405;-68
2021/06/13 08:55:00;;;;;;;4.13;1.90;;;23.80;93.20;;;;;;5113491;28;20783;-69
2021/06/13 08:57:26;;;;;;;3.83;1.97;;;23.90;93.70;;;;;;5113925;28;20253;-68
2021/06/13 08:59:52;;;;;;;4.37;2.30;;;23.80;93.70;;;;;;5113433;28;20183;-68
2021/06/13 09:02:17;;;;;;;8.63;2.40;;;23.40;94.50;;;;;;5116191;28;20983;-67
2021/06/13 09:04:43;;;;;;;3.23;1.93;;;23.10;94.60;;;;;;5117139;28;20623;-69
2021/06/13 09:07:15;;;;;;;6.93;2.40;;;23.20;94.00;;;;;;5115896;28;20209;-68
2021/06/13 09:09:40;;;;;;;11.30;2.10;;;23.20;94.30;;;;;;5117135;28;20415;-69
2021/06/13 09:12:07;;;;;;;8.43;2.67;;;23.40;94.20;;;;;;5117143;28;20517;-68
2021/06/13 09:14:41;;;;;;;7.00;2.10;;;23.50;93.40;;;;;;5115633;28;20182;-69
2021/06/13 09:17:15;;;;;;;3.73;2.30;;;23.50;93.80;;;;;;5117066;28;20461;-69
2021/06/13 09:20:20;;;;;;;4.63;1.80;;;23.20;93.70;;;;;;5116778;28;20502;-69
2021/06/13 09:23:07;;;;;;;2.00;1.73;;;23.10;94.40;;;;;;5117344;28;20460;-69
2021/06/13 09:25:34;;;;;;;2.20;2.00;;;23.40;93.60;;;;;;5116624;28;20501;-68
2021/06/13 09:28:05;;;;;;;2.93;1.80;;;23.80;93.50;;;;;;5115748;28;20418;-69
2021/06/13 09:30:33;;;;;;;2.60;2.07;;;23.60;94.80;;;;;;5115280;28;20433;-69
2021/06/13 09:33:14;;;;;;;3.40;2.53;;;23.50;95.00;;;;;;5117119;28;20408;-69
2021/06/13 09:35:42;;;;;;;4.67;2.30;;;23.50;95.70;;;;;;5115295;28;20437;-68
2021/06/13 09:38:27;;;;;;;2.30;2.10;;;23.80;95.00;;;;;;5117090;28;20411;-67
2021/06/13 09:40:53;;;;;;;2.50;2.30;;;23.60;94.50;;;;;;5116313;28;20960;-70
2021/06/13 09:43:37;;;;;;;3.53;1.83;;;23.60;94.60;;;;;;5116540;28;20415;-69
2021/06/13 09:46:15;;;;;;;5.63;2.23;;;24.00;95.30;;;;;;5114978;28;20482;-68
2021/06/13 09:48:49;;;;;;;2.57;2.10;;;24.00;94.30;;;;;;5116411;28;20450;-67
2021/06/13 09:51:20;;;;;;;10.93;2.47;;;23.60;94.80;;;;;;5116339;28;20419;-70
2021/06/13 09:53:51;;;;;;;3.53;1.80;;;22.90;94.10;;;;;;5116198;28;20404;-69
2021/06/13 09:56:28;;;;;;;4.30;2.10;;;23.30;94.50;;;;;;5116118;28;20431;-68
2021/06/13 09:58:58;;;;;;;3.47;1.93;;;23.40;94.10;;;;;;5116103;28;20470;-70
2021/06/13 10:01:29;;;;;;;3.07;1.90;;;23.40;92.90;;;;;;5115979;28;20436;-69
2021/06/13 10:03:56;;;;;;;5.70;2.17;;;23.40;94.00;;;;;;5115969;28;20412;-67
2021/06/13 10:06:21;;;;;;;8.10;2.20;;;23.30;93.80;;;;;;5114457;28;20466;-68
2021/06/13 10:08:49;;;;;;;7.53;2.50;;;23.30;93.80;;;;;;5116006;28;20409;-69
2021/06/13 10:11:16;;;;;;;4.33;2.07;;;23.30;93.70;;;;;;5114514;28;20195;-68
2021/06/13 10:13:44;;;;;;;3.40;2.10;;;23.40;92.70;;;;;;5114683;27;20438;-67
2021/06/13 10:16:20;;;;;;;2.93;2.10;;;23.10;92.90;;;;;;5113641;28;20526;-69
2021/06/13 10:18:58;;;;;;;4.80;2.30;;;23.30;93.00;;;;;;5115652;28;20770;-68
2021/06/13 10:21:43;;;;;;;3.57;2.93;;;23.50;93.10;;;;;;5115809;28;20811;-68
2021/06/13 10:24:15;;;;;;;5.20;2.63;;;22.90;93.60;;;;;;5115617;28;20398;-69
2021/06/13 10:26:44;;;;;;;2.60;2.10;;;22.80;93.20;;;;;;5115746;28;20458;-68
2021/06/13 10:29:12;;;;;;;5.67;2.30;;;23.30;94.30;;;;;;5115539;28;20769;-69
2021/06/13 10:31:38;;;;;;;9.90;2.37;;;23.10;93.60;;;;;;5114199;28;20488;-68
2021/06/13 10:34:04;;;;;;;7.70;3.00;;;23.30;93.20;;;;;;5115379;28;20398;-69
2021/06/13 10:36:36;;;;;;;4.20;3.00;;;23.40;93.20;;;;;;5115345;28;20437;-68
2021/06/13 10:39:04;;;;;;;2.43;2.23;;;23.30;93.40;;;;;;5114015;28;20411;-68
2021/06/13 10:41:30;;;;;;;3.17;2.40;;;23.30;93.40;;;;;;5115245;28;20795;-68
2021/06/13 10:44:05;;;;;;;10.60;3.10;;;23.40;93.60;;;;;;5115152;28;20403;-69
2021/06/13 10:46:32;;;;;;;7.60;2.30;;;23.30;92.20;;;;;;5114939;28;20214;-70
2021/06/13 10:49:00;;;;;;;5.23;2.33;;;23.40;92.60;;;;;;5115133;28;20486;-70
2021/06/13 10:51:44;;;;;;;3.10;2.17;;;23.60;92.70;;;;;;5113626;28;20453;-68
2021/06/13 10:57:17;;;;;;;8.20;4.33;;;23.40;92.30;;;;;;5094192;28;20463;-69
2021/06/13 10:59:53;;;;;;;4.97;2.77;;;23.40;92.30;;;;;;5114972;28;20431;-69
2021/06/13 11:02:24;;;;;;;4.17;2.23;;;23.30;92.10;;;;;;5115383;28;20198;-69
2021/06/13 11:05:01;;;;;;;4.97;2.10;;;23.20;91.70;;;;;;5114656;28;20458;-67
2021/06/13 11:07:35;;;;;;;5.17;2.90;;;23.20;91.90;;;;;;5115289;28;20509;-68
2021/06/13 11:10:16;;;;;;;5.13;2.00;;;23.20;91.90;;;;;;5114678;28;20403;-67
2021/06/13 11:13:00;;;;;;;4.73;2.03;;;23.30;91.90;;;;;;5115206;28;20430;-68
2021/06/13 11:15:25;;;;;;;5.93;2.43;;;23.20;91.40;;;;;;5113434;28;20461;-69
2021/06/13 11:18:04;;;;;;;3.10;2.23;;;23.20;91.70;;;;;;5115020;28;20413;-68
2021/06/13 11:20:45;;;;;;;2.60;2.03;;;23.00;91.90;;;;;;5113047;28;20284;-68
2021/06/13 11:23:20;;;;;;;6.67;1.90;;;23.00;91.90;;;;;;5115085;28;20425;-69
2021/06/13 11:25:46;;;;;;;4.30;2.30;;;23.50;92.10;;;;;;5113477;28;20462;-68
2021/06/13 11:28:16;;;;;;;5.53;2.30;;;23.40;91.30;;;;;;5114907;28;20812;-71
2021/06/13 11:30:53;;;;;;;6.67;3.03;;;23.20;91.50;;;;;;5113285;28;20210;-68
2021/06/13 11:33:40;;;;;;;5.30;2.13;;;23.50;91.50;;;;;;5114367;28;20444;-68
2021/06/13 11:36:30;;;;;;;7.23;2.50;;;23.60;91.90;;;;;;5114174;28;20960;-68
2021/06/13 11:39:04;;;;;;;6.20;2.70;;;23.50;91.10;;;;;;5114348;28;20458;-68
2021/06/13 11:41:36;;;;;;;5.10;2.30;;;23.10;91.20;;;;;;5114287;28;20964;-68
2021/06/13 11:44:05;;;;;;;5.90;2.33;;;23.10;91.60;;;;;;5114384;28;20506;-69
2021/06/13 11:46:39;;;;;;;7.30;2.37;;;22.90;91.00;;;;;;5114206;28;20483;-69
2021/06/13 11:49:11;;;;;;;2.63;2.20;;;23.10;91.40;;;;;;5112895;28;20425;-68
2021/06/13 11:51:56;;;;;;;3.60;2.00;;;23.50;91.40;;;;;;5112839;28;20445;-69
2021/06/13 11:54:44;;;;;;;2.83;2.07;;;23.40;90.70;;;;;;5114226;28;20843;-68
2021/06/13 11:57:12;;;;;;;7.13;2.20;;;23.20;90.70;;;;;;5112854;28;21083;-70
2021/06/13 11:59:39;;;;;;;4.43;1.90;;;23.30;90.70;;;;;;5112855;28;20784;-69
2021/06/13 12:02:05;;;;;;;5.40;2.87;;;23.20;90.70;;;;;;5114195;28;20445;-68
2021/06/13 12:04:31;;;;;;;7.93;3.50;;;23.40;90.70;;;;;;5112675;28;20945;-70
2021/06/13 12:06:59;;;;;;;6.03;2.50;;;23.60;89.90;;;;;;5114108;28;20601;-68
2021/06/13 12:09:29;;;;;;;3.40;2.00;;;23.80;89.30;;;;;;5113999;28;20412;-68
2021/06/13 12:12:03;;;;;;;2.40;2.10;;;24.10;89.70;;;;;;5114099;28;20433;-68
2021/06/13 12:14:38;;;;;;;4.57;2.30;;;24.40;87.70;;;;;;5112657;28;20467;-68
2021/06/13 12:17:16;;;;;;;5.53;2.23;;;24.20;88.60;;;;;;5112723;28;20438;-68
2021/06/13 12:19:51;;;;;;;5.20;2.43;;;24.20;87.50;;;;;;5114007;28;20403;-68
2021/06/13 12:22:54;;;;;;;7.73;2.20;;;24.20;88.70;;;;;;5114348;28;20489;-67
2021/06/13 12:28:10;;;;;;;4.40;1.93;;;23.80;87.60;;;;;;5113998;28;20426;-70
2021/06/13 12:30:38;;;;;;;3.60;2.57;;;24.00;88.00;;;;;;5113784;28;20421;-69
2021/06/13 12:33:07;;;;;;;4.07;3.70;;;24.10;88.30;;;;;;5112702;28;20506;-68
2021/06/13 12:35:35;;;;;;;4.47;2.43;;;24.20;87.30;;;;;;5112471;28;20530;-69
2021/06/13 12:38:17;;;;;;;3.47;2.23;;;24.40;86.60;;;;;;5116297;28;20424;-68
2021/06/13 12:40:51;;;;;;;7.13;2.47;;;24.20;85.70;;;;;;5117719;28;20452;-68
2021/06/13 12:43:37;;;;;;;2.50;2.00;;;24.10;87.00;;;;;;5117683;28;20806;-68
2021/06/13 12:46:05;;;;;;;3.17;1.73;;;24.20;86.30;;;;;;5117467;28;20457;-67
2021/06/13 12:48:31;;;;;;;3.87;2.00;;;24.00;84.70;;;;;;5117565;28;20424;-69
2021/06/13 12:50:57;;;;;;;5.00;2.30;;;24.00;85.00;;;;;;5117248;28;20427;-67
2021/06/13 12:53:43;;;;;;;8.90;2.03;;;24.20;85.80;;;;;;5117471;28;20459;-69
2021/06/13 12:56:10;;;;;;;2.20;2.00;;;24.40;85.70;;;;;;5116235;28;20215;-70
2021/06/13 12:58:41;;;;;;;4.93;1.80;;;24.10;84.60;;;;;;5117345;28;20399;-68
2021/06/13 13:01:07;;;;;;;1.60;1.50;;;24.20;84.60;;;;;;5115971;28;20649;-68